Time;durP1;ratioP1;P1;durP2;ratioP2;P2;SDS_P1;SDS_P2;PMS_P1;PMS_P2;Temp;Humidity;BMP_temperature;BMP_pressure;BME280_temperature;BME280_humidity;BME280_pressure;Samples;Min_cycle;Max_cycle;Signal;HPM_P1;HPM_P2
2022/05/02 00:00:27;;;;;;;0.70;0.70;;;9.90;99.90;9.50;101950.00;;;;5077908;28;20183;-81
2022/05/02 00:02:56;;;;;;;0.90;0.90;;;9.70;99.90;9.30;101933.00;;;;5093576;28;20189;-82
2022/05/02 00:05:22;;;;;;;0.70;0.70;;;9.60;99.90;9.50;101951.00;;;;5093731;28;20189;-84
2022/05/02 00:07:51;;;;;;;0.80;0.80;;;9.50;99.90;9.70;101932.00;;;;5093977;28;20234;-83
2022/05/02 00:10:18;;;;;;;0.70;0.70;;;9.70;99.90;9.30;101938.00;;;;5094815;28;20241;-83
2022/05/02 00:12:44;;;;;;;0.70;0.70;;;9.50;99.90;9.60;101944.00;;;;5094372;28;20204;-82
2022/05/02 00:15:11;;;;;;;3.07;2.27;;;9.60;99.90;9.20;101937.00;;;;5077608;28;20686;-83
2022/05/02 00:20:23;;;;;;;2.00;1.90;;;9.20;99.90;9.60;101891.00;;;;5108338;28;20217;-83
2022/05/02 00:22:52;;;;;;;2.90;2.67;;;9.40;99.90;9.90;101946.00;;;;5114497;28;20546;-83
2022/05/02 00:25:18;;;;;;;2.13;1.97;;;9.80;99.90;9.90;101924.00;;;;5113123;28;20657;-83
2022/05/02 00:27:50;;;;;;;0.70;0.70;;;10.00;99.90;9.80;101928.00;;;;5097308;28;20212;-84
2022/05/02 00:30:17;;;;;;;0.73;0.73;;;9.80;99.90;9.90;101940.00;;;;5114637;28;20276;-84
2022/05/02 00:32:44;;;;;;;0.60;0.60;;;9.90;99.90;9.50;101939.00;;;;5095970;28;20220;-83
2022/05/02 00:35:13;;;;;;;0.70;0.70;;;9.80;99.90;9.30;101925.00;;;;5113407;28;20273;-83
2022/05/02 00:37:41;;;;;;;0.70;0.70;;;9.60;99.90;9.10;101884.00;;;;5114588;28;20177;-84
2022/05/02 00:40:09;;;;;;;0.70;0.70;;;9.40;99.90;9.50;101878.00;;;;5112638;28;20191;-80
2022/05/02 00:42:36;;;;;;;1.03;1.03;;;9.50;99.90;9.00;101907.00;;;;5095933;28;20195;-83
2022/05/02 00:45:06;;;;;;;3.47;3.33;;;9.30;99.90;9.10;101910.00;;;;5113858;28;20194;-84
2022/05/02 00:47:33;;;;;;;0.77;0.77;;;9.30;99.90;9.10;101920.00;;;;5113638;28;20247;-83
2022/05/02 00:49:58;;;;;;;2.00;1.90;;;9.30;99.90;9.20;101912.00;;;;5086462;28;20546;-83
2022/05/02 00:52:27;;;;;;;0.60;0.60;;;9.30;99.90;9.00;101911.00;;;;5093455;28;20200;-85
2022/05/02 00:54:56;;;;;;;1.80;1.80;;;9.20;99.90;9.00;101920.00;;;;5091142;28;20173;-81
2022/05/02 00:57:23;;;;;;;1.13;1.13;;;9.20;99.90;8.70;101911.00;;;;5093021;28;20173;-86
2022/05/02 00:59:49;;;;;;;0.70;0.70;;;9.00;99.90;8.60;101893.00;;;;5092519;28;20632;-80
2022/05/02 01:02:15;;;;;;;0.80;0.80;;;8.90;99.90;9.00;101906.00;;;;5094582;28;20185;-84
2022/05/02 01:04:43;;;;;;;0.70;0.70;;;9.00;99.90;8.70;101889.00;;;;5093127;28;20542;-87
2022/05/02 01:07:11;;;;;;;0.70;0.70;;;8.90;99.90;8.80;101870.00;;;;5076594;28;20692;-81
2022/05/02 01:09:46;;;;;;;0.70;0.70;;;8.90;99.90;8.60;101881.00;;;;5092562;28;20184;-81
2022/05/02 01:12:22;;;;;;;2.40;2.30;;;8.80;99.90;9.00;101894.00;;;;5092570;28;20231;-81
2022/05/02 01:14:52;;;;;;;1.43;1.43;;;8.90;99.90;9.10;101897.00;;;;5091477;28;20228;-81
2022/05/02 01:17:18;;;;;;;2.90;2.70;;;9.10;99.90;9.40;101891.00;;;;5075987;28;20177;-82
2022/05/02 01:19:44;;;;;;;0.80;0.80;;;9.30;99.90;9.10;101843.00;;;;5076880;28;20180;-81
2022/05/02 01:22:13;;;;;;;0.80;0.80;;;9.30;99.90;9.00;101897.00;;;;5092078;28;20632;-82
2022/05/02 01:24:45;;;;;;;0.70;0.70;;;9.20;99.90;9.00;101888.00;;;;5075723;28;20282;-81
2022/05/02 01:27:14;;;;;;;0.80;0.80;;;9.20;99.90;9.10;101894.00;;;;5076445;28;20186;-82
2022/05/02 01:29:42;;;;;;;1.33;1.33;;;9.20;99.90;8.70;101891.00;;;;5092187;28;20183;-82
2022/05/02 01:32:11;;;;;;;0.80;0.80;;;9.00;99.90;8.60;101885.00;;;;5092314;28;20215;-83
2022/05/02 01:34:42;;;;;;;0.70;0.70;;;8.80;99.90;8.60;101887.00;;;;5091943;28;20183;-83
2022/05/02 01:37:13;;;;;;;0.70;0.70;;;8.70;99.90;8.40;101880.00;;;;5075267;28;20267;-83
2022/05/02 01:39:43;;;;;;;0.80;0.80;;;8.60;99.90;8.70;101883.00;;;;5092053;28;20171;-83
2022/05/02 01:42:11;;;;;;;1.20;1.20;;;8.70;99.90;8.70;101884.00;;;;5075103;28;20692;-84
2022/05/02 01:44:39;;;;;;;0.70;0.70;;;8.90;99.90;8.60;101844.00;;;;5093546;28;20183;-83
2022/05/02 01:47:08;;;;;;;0.83;0.83;;;8.80;99.90;8.70;101891.00;;;;5091865;28;20187;-83
2022/05/02 01:49:34;;;;;;;0.70;0.70;;;8.80;99.90;8.40;101856.00;;;;5073815;28;20187;-83
2022/05/02 01:52:00;;;;;;;0.70;0.70;;;8.60;99.90;8.30;101885.00;;;;5093986;28;20226;-84
2022/05/02 01:54:29;;;;;;;0.70;0.70;;;8.50;99.90;8.30;101885.00;;;;5091595;28;20654;-84
2022/05/02 01:56:56;;;;;;;1.07;1.07;;;8.40;99.90;7.70;101884.00;;;;5093174;28;20179;-84
2022/05/02 01:59:23;;;;;;;0.60;0.60;;;8.30;99.90;7.80;101844.00;;;;5091758;28;20221;-83
2022/05/02 02:01:49;;;;;;;0.60;0.60;;;8.20;99.90;8.10;101885.00;;;;5092339;28;20764;-82
2022/05/02 02:06:59;;;;;;;0.70;0.70;;;8.20;99.90;8.20;101885.00;;;;5092499;28;20191;-83
2022/05/02 02:09:26;;;;;;;0.70;0.70;;;8.20;99.90;8.30;101879.00;;;;5093509;28;20204;-83
2022/05/02 02:11:52;;;;;;;0.70;0.70;;;8.30;99.90;8.40;101857.00;;;;5090908;28;20290;-83
2022/05/02 02:14:18;;;;;;;0.70;0.70;;;8.40;99.90;8.30;101881.00;;;;5091774;28;20234;-82
2022/05/02 02:16:46;;;;;;;0.73;0.73;;;8.40;99.90;8.50;101865.00;;;;5091091;28;20630;-82
2022/05/02 02:19:12;;;;;;;0.80;0.80;;;8.50;99.90;8.40;101869.00;;;;5093606;28;20172;-81
2022/05/02 02:21:37;;;;;;;0.80;0.80;;;8.50;99.90;8.00;101852.00;;;;5090733;28;20650;-83
2022/05/02 02:24:04;;;;;;;0.80;0.80;;;8.30;99.90;8.00;101860.00;;;;5074602;28;20214;-83
2022/05/02 02:26:31;;;;;;;0.77;0.77;;;8.20;99.90;8.00;101862.00;;;;5074140;28;20555;-85
2022/05/02 02:28:58;;;;;;;2.30;2.20;;;8.10;99.90;8.00;101873.00;;;;5075105;28;20178;-84
2022/05/02 02:31:28;;;;;;;0.87;0.87;;;8.10;99.90;8.30;101869.00;;;;5090354;28;20291;-83
2022/05/02 02:33:53;;;;;;;1.27;1.27;;;8.20;99.90;8.30;101863.00;;;;5091940;28;20202;-82
2022/05/02 02:36:19;;;;;;;0.70;0.70;;;8.40;99.90;8.30;101861.00;;;;5092271;28;20540;-83
2022/05/02 02:38:45;;;;;;;0.80;0.80;;;8.40;99.90;7.90;101860.00;;;;5091862;28;20662;-81
2022/05/02 02:41:16;;;;;;;0.70;0.70;;;8.20;99.90;7.90;101858.00;;;;5089707;28;20195;-81
2022/05/02 02:43:42;;;;;;;0.70;0.70;;;8.10;99.90;7.80;101865.00;;;;5072913;28;20637;-82
2022/05/02 02:46:08;;;;;;;6.07;3.83;;;8.00;99.90;8.40;101859.00;;;;5074962;28;20194;-82
2022/05/02 02:48:34;;;;;;;0.73;0.73;;;8.30;99.90;8.20;101823.00;;;;5093064;28;20206;-82
2022/05/02 02:51:01;;;;;;;0.80;0.80;;;8.30;99.90;8.10;101862.00;;;;5091717;28;20718;-80
2022/05/02 02:53:27;;;;;;;0.80;0.80;;;8.30;99.90;7.80;101862.00;;;;5091691;28;20208;-79
2022/05/02 02:55:53;;;;;;;0.70;0.70;;;8.10;99.90;7.70;101864.00;;;;5093250;28;20190;-79
2022/05/02 02:58:19;;;;;;;0.70;0.70;;;8.00;99.90;7.60;101865.00;;;;5093049;28;20247;-79
2022/05/02 03:00:45;;;;;;;0.70;0.70;;;7.90;99.90;7.50;101853.00;;;;5092886;28;20179;-79
2022/05/02 03:03:11;;;;;;;1.03;1.03;;;7.80;99.90;7.70;101847.00;;;;5075083;28;20191;-79
2022/05/02 03:08:25;;;;;;;1.00;1.00;;;7.80;99.90;8.40;101848.00;;;;5090572;28;20216;-83
2022/05/02 03:10:55;;;;;;;1.03;1.03;;;8.30;99.90;8.20;101845.00;;;;5091785;28;20525;-81
2022/05/02 03:13:21;;;;;;;0.70;0.70;;;8.50;99.90;8.20;101842.00;;;;5091825;28;20193;-82
2022/05/02 03:15:48;;;;;;;0.70;0.70;;;8.30;99.90;8.20;101839.00;;;;5074730;28;20224;-83
2022/05/02 03:18:13;;;;;;;0.80;0.80;;;8.30;99.90;7.80;101836.00;;;;5091716;28;20193;-86
2022/05/02 03:20:39;;;;;;;0.80;0.80;;;8.10;99.90;7.70;101838.00;;;;5095144;28;20205;-85
2022/05/02 03:23:06;;;;;;;0.80;0.80;;;7.90;99.90;7.70;101836.00;;;;5078315;28;20181;-86
2022/05/02 03:25:32;;;;;;;0.80;0.80;;;7.90;99.90;7.90;101832.00;;;;5078408;28;20187;-88
2022/05/02 03:28:00;;;;;;;1.30;1.30;;;7.90;99.90;7.60;101832.00;;;;5079431;28;20240;-87
2022/05/02 03:30:26;;;;;;;0.70;0.70;;;7.90;99.90;7.60;101834.00;;;;5095049;28;20168;-86
2022/05/02 03:32:55;;;;;;;0.70;0.70;;;7.80;99.90;7.90;101829.00;;;;5077006;28;20225;-84
2022/05/02 03:35:21;;;;;;;0.70;0.70;;;7.90;99.90;7.70;101834.00;;;;5095187;28;20625;-87
2022/05/02 03:37:47;;;;;;;0.90;0.90;;;7.80;99.90;7.70;101835.00;;;;5095190;28;20186;-88
2022/05/02 03:40:13;;;;;;;0.80;0.80;;;7.80;99.90;7.60;101838.00;;;;5078327;28;20268;-85
2022/05/02 03:43:02;;;;;;;0.70;0.70;;;7.70;99.90;7.40;101823.00;;;;5078216;28;20185;-84
2022/05/02 03:45:28;;;;;;;0.73;0.73;;;7.60;99.90;7.30;101849.00;;;;5079915;28;20205;-86
2022/05/02 03:47:54;;;;;;;0.70;0.70;;;7.50;99.90;7.30;101797.00;;;;5094980;28;20178;-85
2022/05/02 03:50:20;;;;;;;0.63;0.63;;;7.50;99.90;7.20;101826.00;;;;5077503;28;20666;-84
2022/05/02 03:52:46;;;;;;;0.67;0.67;;;7.50;99.90;7.60;101845.00;;;;5094875;28;20572;-85
2022/05/02 03:55:15;;;;;;;0.60;0.60;;;7.60;99.90;7.80;101839.00;;;;5078022;28;20233;-86
2022/05/02 03:57:41;;;;;;;0.70;0.70;;;7.90;99.90;7.40;101836.00;;;;5095168;28;20181;-85
2022/05/02 04:00:07;;;;;;;1.43;1.43;;;7.70;99.90;7.30;101838.00;;;;5094546;28;20259;-87
2022/05/02 04:02:33;;;;;;;0.77;0.77;;;7.60;99.90;7.10;101835.00;;;;5095288;28;20208;-86
2022/05/02 04:04:59;;;;;;;0.60;0.60;;;7.40;99.90;7.40;101840.00;;;;5094125;28;20178;-85
2022/05/02 04:07:28;;;;;;;0.60;0.60;;;7.40;99.90;7.20;101842.00;;;;5078198;28;20259;-84
2022/05/02 04:09:59;;;;;;;0.60;0.60;;;7.40;99.90;7.20;101790.00;;;;5096245;28;20178;-83
2022/05/02 04:12:38;;;;;;;0.60;0.60;;;7.30;99.90;7.50;101846.00;;;;5078043;28;20256;-83
2022/05/02 04:15:06;;;;;;;1.53;1.53;;;7.50;99.90;7.40;101811.00;;;;5095233;28;20189;-82
2022/05/02 04:17:33;;;;;;;0.60;0.60;;;7.60;99.90;6.90;101834.00;;;;5112344;28;20227;-83
2022/05/02 04:19:59;;;;;;;0.60;0.60;;;7.40;99.90;7.10;101850.00;;;;5113684;28;20264;-83
2022/05/02 04:22:25;;;;;;;0.77;0.77;;;7.30;99.90;7.60;101856.00;;;;5078339;28;20231;-81
2022/05/02 04:24:50;;;;;;;0.70;0.70;;;7.60;99.90;7.20;101843.00;;;;5093927;28;20620;-83
2022/05/02 04:27:19;;;;;;;0.70;0.70;;;7.50;99.90;7.20;101855.00;;;;5093455;28;20193;-82
2022/05/02 04:29:47;;;;;;;0.80;0.80;;;7.40;99.90;7.20;101855.00;;;;5093950;28;20189;-83
2022/05/02 04:32:13;;;;;;;0.77;0.77;;;7.30;99.90;7.40;101847.00;;;;5094187;28;20209;-86
2022/05/02 04:34:39;;;;;;;0.70;0.70;;;7.40;99.90;7.60;101808.00;;;;5092905;28;20613;-86
2022/05/02 04:37:07;;;;;;;0.70;0.70;;;7.50;99.90;7.80;101857.00;;;;5094189;28;20615;-87
2022/05/02 04:39:33;;;;;;;0.67;0.67;;;7.70;99.90;7.30;101851.00;;;;5093796;28;20185;-86
2022/05/02 04:41:59;;;;;;;0.70;0.70;;;7.60;99.90;7.40;101842.00;;;;5093800;28;20240;-86
2022/05/02 04:44:31;;;;;;;0.70;0.70;;;7.50;99.90;7.80;101852.00;;;;5076649;28;20660;-87
2022/05/02 04:46:56;;;;;;;0.70;0.70;;;7.70;99.90;7.90;101853.00;;;;5093427;28;20256;-83
2022/05/02 04:49:22;;;;;;;0.80;0.80;;;7.90;99.90;8.00;101855.00;;;;5093923;28;20281;-83
2022/05/02 04:51:48;;;;;;;0.70;0.70;;;8.00;99.90;7.90;101859.00;;;;5106719;28;20201;-87
2022/05/02 04:54:14;;;;;;;1.00;1.00;;;7.90;99.90;7.90;101860.00;;;;5097174;28;20181;-87
2022/05/02 04:56:40;;;;;;;0.80;0.80;;;8.00;99.90;8.00;101852.00;;;;5114372;28;20201;-84
2022/05/02 04:59:06;;;;;;;0.70;0.70;;;8.00;99.90;8.10;101798.00;;;;5096426;28;20221;-85
2022/05/02 05:01:32;;;;;;;0.80;0.80;;;8.10;99.90;8.80;101854.00;;;;5112709;28;20649;-86
2022/05/02 05:03:58;;;;;;;0.60;0.60;;;8.50;99.90;9.80;101854.00;;;;5113887;28;20267;-86
2022/05/02 05:06:28;;;;;;;0.60;0.60;;;9.30;99.90;10.30;101808.00;;;;5096504;28;20229;-85
2022/05/02 05:08:56;;;;;;;5.20;1.47;;;9.90;99.90;11.40;101846.00;;;;5114033;28;20217;-85
2022/05/02 05:11:40;;;;;;;1.13;1.13;;;10.80;99.90;12.00;101852.00;;;;5113632;28;20292;-87
2022/05/02 05:18:14;;;;;;;0.40;0.40;;;12.40;99.90;14.60;101832.00;;;;5114740;28;20234;-88
2022/05/02 05:20:58;;;;;;;0.30;0.30;;;13.70;99.90;15.30;101887.00;;;;5083476;28;20266;-88
2022/05/02 05:24:05;;;;;;;1.23;1.23;;;14.60;99.90;16.30;101912.00;;;;5113665;28;20649;-81
2022/05/02 05:26:49;;;;;;;0.50;0.50;;;15.50;99.90;16.90;101935.00;;;;5015228;28;20215;-84
2022/05/02 05:30:00;;;;;;;0.20;0.20;;;16.20;99.90;17.70;101921.00;;;;5107431;28;20196;-81
2022/05/02 05:32:57;;;;;;;0.33;0.33;;;16.90;99.90;18.40;101976.00;;;;5112624;28;20210;-83
2022/05/02 05:35:30;;;;;;;1.40;1.40;;;17.60;99.90;19.10;101949.00;;;;5104678;28;20201;-85
2022/05/02 05:38:01;;;;;;;0.77;0.77;;;18.30;99.90;19.40;101999.00;;;;5113998;28;20213;-86
2022/05/02 05:40:44;;;;;;;1.13;1.13;;;18.80;99.90;20.40;101970.00;;;;5114077;28;20241;-83
2022/05/02 05:43:37;;;;;;;0.73;0.73;;;19.40;99.90;20.70;101984.00;;;;5112958;28;20613;-87
2022/05/02 05:46:53;;;;;;;0.27;0.27;;;19.90;99.90;19.70;102015.00;;;;5112948;28;20188;-87
2022/05/02 05:50:02;;;;;;;0.60;0.60;;;19.60;99.90;19.70;102026.00;;;;5113109;28;20781;-82
2022/05/02 05:53:19;;;;;;;1.00;1.00;;;19.50;99.90;16.80;102023.00;;;;5113799;28;20681;-82
2022/05/02 05:56:03;;;;;;;0.25;0.25;;;19.10;99.90;18.30;102029.00;;;;5099982;28;20194;-82
2022/05/02 05:58:50;;;;;;;0.17;0.17;;;17.80;99.90;20.40;102012.00;;;;5114181;28;20191;-82
2022/05/02 06:02:06;;;;;;;4.72;1.65;;;19.10;99.90;19.40;102049.00;;;;5112956;28;20176;-83
2022/05/02 06:04:38;;;;;;;0.10;0.10;;;19.10;99.90;20.90;102058.00;;;;5112906;28;20192;-83
2022/05/02 06:07:18;;;;;;;0.60;0.60;;;19.90;99.90;22.10;102072.00;;;;5095300;28;20651;-83
2022/05/02 06:09:48;;;;;;;3.63;1.65;;;20.80;99.90;23.30;102063.00;;;;5095630;28;20188;-81
2022/05/02 06:12:15;;;;;;;0.25;0.25;;;22.00;99.90;22.10;102066.00;;;;5111594;28;20259;-80
2022/05/02 06:20:29;;;;;;;0.98;0.95;;;20.60;99.90;15.10;102011.00;;;;5113857;28;20612;-79
2022/05/02 06:22:57;;;;;;;1.65;1.55;;;17.60;99.90;15.30;102023.00;;;;5112578;28;20199;-81
2022/05/02 06:25:28;;;;;;;7.10;1.92;;;16.30;99.90;18.10;102029.00;;;;5112508;28;20313;-81
2022/05/02 06:27:56;;;;;;;1.58;1.58;;;17.00;99.90;18.00;102033.00;;;;5112057;28;20164;-81
2022/05/02 06:30:23;;;;;;;0.50;0.50;;;18.00;99.90;17.50;102033.00;;;;5113367;28;20177;-81
2022/05/02 06:32:52;;;;;;;0.47;0.47;;;17.30;99.90;19.70;102005.00;;;;5112533;28;20184;-80
2022/05/02 06:35:18;;;;;;;0.20;0.20;;;18.40;99.90;21.50;102057.00;;;;5112398;28;20645;-84
2022/05/02 06:37:50;;;;;;;1.98;1.65;;;20.20;99.90;19.30;102042.00;;;;5112971;28;20271;-81
2022/05/02 06:40:30;;;;;;;2.15;2.05;;;20.20;99.90;21.00;102066.00;;;;5094799;28;20187;-81
2022/05/02 06:43:17;;;;;;;2.83;1.95;;;20.20;99.90;18.90;102066.00;;;;5113056;28;20571;-81
2022/05/02 06:45:54;;;;;;;0.20;0.20;;;19.70;99.90;22.00;102059.00;;;;5094118;28;20712;-80
2022/05/02 06:48:37;;;;;;;0.15;0.15;;;20.80;99.90;21.40;102068.00;;;;5112442;28;20183;-79
2022/05/02 06:51:06;;;;;;;4.68;2.17;;;21.30;99.90;19.20;102062.00;;;;5094891;28;20222;-83
2022/05/02 06:54:05;;;;;;;2.15;2.05;;;20.40;99.90;19.40;102037.00;;;;5113273;28;20182;-84
2022/05/02 06:56:33;;;;;;;0.95;0.95;;;19.40;99.90;18.70;102064.00;;;;5116621;28;20619;-79
2022/05/02 06:59:35;;;;;;;2.25;2.05;;;19.70;99.90;21.40;102059.00;;;;5116623;28;20194;-79
2022/05/02 07:02:13;;;;;;;0.40;0.40;;;20.50;99.90;22.60;102058.00;;;;5115569;28;20633;-81
2022/05/02 07:04:48;;;;;;;1.02;1.02;;;21.70;99.90;22.30;102040.00;;;;5116080;28;20263;-79
2022/05/02 07:07:38;;;;;;;2.33;1.92;;;22.30;99.90;19.70;102038.00;;;;5117529;28;20225;-79
2022/05/02 07:10:08;;;;;;;1.40;1.30;;;21.50;99.90;20.50;102063.00;;;;5116232;28;20180;-79
2022/05/02 07:13:15;;;;;;;1.23;1.23;;;20.30;99.90;19.50;102038.00;;;;5084286;28;20204;-79
2022/05/02 07:15:45;;;;;;;2.58;1.67;;;19.60;99.90;16.80;102059.00;;;;5095561;28;20212;-79
2022/05/02 07:19:06;;;;;;;2.45;2.35;;;18.00;99.90;16.80;102053.00;;;;5096136;28;20173;-78
2022/05/02 07:22:01;;;;;;;3.63;2.83;;;17.40;99.90;17.20;102043.00;;;;5104802;28;20216;-79
2022/05/02 07:24:30;;;;;;;13.05;1.75;;;16.90;99.90;19.10;102052.00;;;;5093296;28;20226;-80
2022/05/02 07:27:50;;;;;;;1.92;1.40;;;18.40;99.90;16.60;102046.00;;;;5104930;28;20168;-65
2022/05/02 07:30:39;;;;;;;1.13;0.95;;;17.70;99.90;17.90;102040.00;;;;5092666;28;20628;-78
2022/05/02 07:33:54;;;;;;;1.95;1.27;;;17.70;99.90;18.90;102044.00;;;;5095134;28;20185;-78
2022/05/02 07:36:24;;;;;;;3.55;2.70;;;18.30;99.90;17.00;101990.00;;;;5078410;28;20173;-78
2022/05/02 07:39:05;;;;;;;2.97;2.78;;;18.10;99.90;18.00;102040.00;;;;5107284;28;20176;-82
2022/05/02 07:41:32;;;;;;;1.48;1.42;;;18.00;99.90;19.20;102017.00;;;;5096146;28;20216;-79
2022/05/02 07:43:59;;;;;;;3.63;2.22;;;18.70;99.90;18.70;102042.00;;;;5096207;28;20636;-77
2022/05/02 07:46:38;;;;;;;3.40;3.10;;;18.90;99.90;17.50;102041.00;;;;5095608;28;20218;-76
2022/05/02 07:49:10;;;;;;;1.65;1.38;;;18.40;99.90;18.30;102030.00;;;;5113195;28;20180;-79
2022/05/02 07:51:50;;;;;;;0.60;0.60;;;18.50;99.90;20.30;102005.00;;;;5111025;28;20314;-77
2022/05/02 07:54:21;;;;;;;1.17;1.17;;;19.80;99.90;20.60;102026.00;;;;5094469;28;20176;-77
2022/05/02 07:56:50;;;;;;;0.55;0.55;;;20.90;99.90;22.30;102030.00;;;;5094274;28;20650;-75
2022/05/02 07:59:20;;;;;;;1.95;1.15;;;21.60;99.90;24.50;101982.00;;;;5094518;28;20181;-74
2022/05/02 08:01:46;;;;;;;0.47;0.47;;;23.30;99.90;24.60;102001.00;;;;5096057;28;20205;-77
2022/05/02 08:04:13;;;;;;;0.60;0.60;;;24.10;97.50;22.20;101995.00;;;;5095520;28;20621;-80
2022/05/02 08:07:12;;;;;;;1.65;1.55;;;22.90;96.90;20.40;101996.00;;;;5094603;28;20185;-78
2022/05/02 08:10:26;;;;;;;0.65;0.65;;;22.00;95.70;19.80;102006.00;;;;5094853;28;20178;-74
2022/05/02 08:13:02;;;;;;;0.43;0.43;;;21.10;95.70;20.90;102008.00;;;;5070821;28;20294;-76
2022/05/02 08:16:01;;;;;;;2.95;1.50;;;21.00;96.60;20.10;102016.00;;;;5077779;28;20588;-76
2022/05/02 08:19:02;;;;;;;1.70;1.60;;;20.60;96.70;19.10;102013.00;;;;5076985;28;20249;-76
2022/05/02 08:21:40;;;;;;;2.83;2.38;;;20.90;95.50;17.00;102018.00;;;;5077198;28;20239;-75
2022/05/02 08:28:15;;;;;;;1.75;1.42;;;19.10;98.80;18.60;102027.00;;;;5094457;28;20266;-75
2022/05/02 08:31:12;;;;;;;0.70;0.70;;;19.10;97.70;19.20;102030.00;;;;5075609;28;20298;-75
2022/05/02 08:34:02;;;;;;;0.38;0.38;;;19.10;98.00;20.50;102026.00;;;;5093851;28;20196;-75
2022/05/02 08:37:11;;;;;;;2.38;2.17;;;19.80;98.00;19.60;102026.00;;;;5094216;28;20184;-75
2022/05/02 08:40:27;;;;;;;2.30;1.98;;;19.80;97.30;18.80;101986.00;;;;5092479;28;20203;-74
2022/05/02 08:43:15;;;;;;;1.08;1.08;;;20.20;96.10;20.60;102029.00;;;;5059748;28;20212;-74
2022/05/02 08:46:08;;;;;;;2.25;1.90;;;19.90;97.60;19.40;102035.00;;;;5094059;28;20644;-73
2022/05/02 08:49:33;;;;;;;1.92;1.77;;;19.80;96.20;19.70;102023.00;;;;5094583;28;20261;-77
2022/05/02 08:53:02;;;;;;;1.77;1.65;;;19.60;96.60;18.30;102017.00;;;;5094095;28;20195;-76
2022/05/02 08:55:55;;;;;;;2.40;2.08;;;18.60;96.60;18.50;102032.00;;;;5079910;28;20679;-77
2022/05/02 08:58:49;;;;;;;1.75;1.65;;;18.90;96.40;18.10;102042.00;;;;5092809;28;20208;-78
2022/05/02 09:01:35;;;;;;;2.10;1.13;;;18.20;97.60;18.10;102007.00;;;;5094548;28;20183;-77
2022/05/02 09:04:28;;;;;;;1.75;1.65;;;18.20;97.60;20.60;102034.00;;;;5093727;28;20208;-77
2022/05/02 09:07:47;;;;;;;5.57;5.38;;;19.70;97.00;21.00;102024.00;;;;5093395;28;20185;-77
2022/05/02 09:10:25;;;;;;;3.67;0.88;;;20.40;96.30;20.40;102025.00;;;;5074799;28;20183;-77
2022/05/02 09:13:23;;;;;;;2.53;1.88;;;20.60;95.70;21.80;102026.00;;;;5081766;28;20700;-76
2022/05/02 09:16:55;;;;;;;2.70;1.00;;;20.90;96.10;22.40;102011.00;;;;5093670;28;20504;-73
2022/05/02 09:20:03;;;;;;;1.95;1.85;;;21.80;94.60;22.20;102009.00;;;;5062173;28;20185;-75
2022/05/02 09:23:02;;;;;;;2.22;1.50;;;21.90;93.80;19.50;102009.00;;;;5103742;28;20281;-74
2022/05/02 09:25:51;;;;;;;4.40;3.92;;;20.70;93.90;19.80;101998.00;;;;5092025;28;20185;-77
2022/05/02 09:28:22;;;;;;;2.83;1.08;;;20.30;94.80;19.30;102008.00;;;;5076300;28;20238;-81
2022/05/02 09:31:15;;;;;;;0.73;0.73;;;19.60;95.40;20.80;101979.00;;;;5092847;28;20638;-78
2022/05/02 09:34:17;;;;;;;0.80;0.80;;;20.00;95.60;20.40;102005.00;;;;5092376;28;20270;-79
2022/05/02 09:37:02;;;;;;;4.30;3.40;;;20.40;94.70;19.50;102012.00;;;;5091834;28;20649;-80
2022/05/02 09:40:02;;;;;;;3.67;3.00;;;19.80;94.70;19.00;101998.00;;;;5092457;28;20238;-79
2022/05/02 09:50:11;;;;;;;0.88;0.88;;;19.80;94.90;20.00;102009.00;;;;5006696;28;20233;-81
2022/05/02 09:53:03;;;;;;;3.83;1.63;;;20.20;94.60;19.50;101992.00;;;;5076573;28;20177;-80
2022/05/02 09:59:07;;;;;;;0.82;0.82;;;19.60;94.00;20.70;101996.00;;;;5106152;28;20186;-80
2022/05/02 10:01:35;;;;;;;2.15;1.95;;;20.20;93.50;18.60;101995.00;;;;5112209;28;20211;-78
2022/05/02 10:04:40;;;;;;;2.33;1.08;;;19.10;94.30;19.80;101991.00;;;;5096180;28;20202;-81
2022/05/02 10:07:09;;;;;;;1.70;1.58;;;19.50;95.10;19.80;101991.00;;;;5112161;28;20589;-82
2022/05/02 10:10:11;;;;;;;2.53;1.92;;;19.80;94.70;19.30;101993.00;;;;5111085;28;20176;-83
2022/05/02 10:13:19;;;;;;;4.35;2.28;;;19.30;94.90;19.70;101947.00;;;;5053114;28;20190;-81
2022/05/02 10:15:54;;;;;;;4.68;4.03;;;19.50;93.90;18.70;101984.00;;;;5112456;28;20196;-80
2022/05/02 10:18:42;;;;;;;2.75;2.58;;;19.10;94.40;20.00;101990.00;;;;5112117;28;20183;-79
2022/05/02 10:33:15;;;;;;;5.57;3.55;;;19.00;94.40;19.60;101985.00;;;;5110477;27;20560;-79
2022/05/02 10:35:46;;;;;;;3.40;1.85;;;19.60;94.90;20.70;101978.00;;;;5089194;28;20623;-79
2022/05/02 10:38:26;;;;;;;3.13;1.52;;;20.30;95.20;20.60;101981.00;;;;5089518;28;20173;-79
2022/05/02 10:41:06;;;;;;;3.47;2.30;;;20.70;94.30;20.20;101982.00;;;;5089455;28;20185;-79
2022/05/02 10:43:36;;;;;;;1.95;1.85;;;20.10;94.30;20.30;101983.00;;;;5071364;28;20747;-82
2022/05/02 10:46:02;;;;;;;2.53;2.20;;;20.40;93.30;20.10;101974.00;;;;5089070;28;20219;-80
2022/05/02 10:48:55;;;;;;;6.32;3.88;;;20.60;92.70;20.60;101975.00;;;;5087804;28;20176;-81
2022/05/02 10:51:35;;;;;;;0.20;0.20;;;20.20;93.20;21.50;101954.00;;;;5069585;28;20215;-78
2022/05/02 10:54:40;;;;;;;2.28;1.55;;;21.20;92.20;21.90;101956.00;;;;5085097;28;20683;-79
2022/05/02 10:58:00;;;;;;;2.03;1.83;;;21.10;92.40;21.50;101961.00;;;;5052372;28;20201;-78
2022/05/02 11:00:28;;;;;;;2.75;1.75;;;21.30;91.80;21.30;101965.00;;;;5045966;28;20239;-70
2022/05/02 11:03:24;;;;;;;0.80;0.80;;;21.30;92.30;22.00;101945.00;;;;5068792;28;20182;-80
2022/05/02 11:06:18;;;;;;;5.28;3.58;;;21.60;92.00;20.00;101954.00;;;;5050965;28;20192;-80
2022/05/02 11:08:52;;;;;;;1.15;1.05;;;21.30;91.90;21.40;101957.00;;;;5050962;28;20173;-80
2022/05/02 11:11:47;;;;;;;1.45;1.40;;;21.00;92.20;21.20;101954.00;;;;5068729;28;20197;-80
2022/05/02 11:14:28;;;;;;;3.22;2.25;;;21.10;92.30;20.60;101952.00;;;;5067964;28;20178;-79
2022/05/02 11:16:56;;;;;;;0.10;0.10;;;21.00;92.10;20.90;101949.00;;;;5052122;28;20185;-79
2022/05/02 11:22:29;;;;;;;6.07;3.53;;;21.90;92.20;21.80;101927.00;;;;5068358;28;20177;-79
2022/05/02 11:25:06;;;;;;;1.15;1.08;;;22.30;91.30;22.50;101929.00;;;;5087802;28;20188;-80
2022/05/02 11:27:46;;;;;;;5.00;4.20;;;22.30;90.90;19.90;101906.00;;;;5089331;28;20177;-80
2022/05/02 11:30:15;;;;;;;1.63;1.52;;;21.20;91.40;22.20;101902.00;;;;5087870;28;20258;-80
2022/05/02 11:32:53;;;;;;;0.30;0.30;;;21.50;92.00;22.10;101908.00;;;;5088172;28;20219;-79
2022/05/02 11:35:34;;;;;;;0.20;0.20;;;22.10;91.40;23.20;101892.00;;;;5088446;28;20206;-80
2022/05/02 11:38:29;;;;;;;1.92;1.83;;;22.60;90.60;21.00;101905.00;;;;5070561;28;20186;-82
2022/05/02 11:41:13;;;;;;;1.90;1.80;;;21.90;89.90;19.80;101915.00;;;;5071043;28;20223;-77
2022/05/02 11:43:39;;;;;;;0.45;0.45;;;20.70;91.10;19.90;101912.00;;;;5080284;28;20173;-76
2022/05/02 11:46:20;;;;;;;1.73;1.20;;;20.10;91.90;20.00;101915.00;;;;5075938;28;20188;-78
2022/05/02 11:49:18;;;;;;;1.95;1.85;;;19.70;92.50;21.10;101914.00;;;;5074294;28;20170;-76
2022/05/02 11:51:51;;;;;;;0.50;0.35;;;20.30;91.90;22.40;101903.00;;;;5057136;28;20216;-77
2022/05/02 11:54:39;;;;;;;0.77;0.77;;;21.40;91.40;20.10;101899.00;;;;5057951;28;20182;-77
2022/05/02 11:57:28;;;;;;;0.68;0.68;;;20.50;91.50;21.20;101901.00;;;;5056838;28;20182;-76
2022/05/02 12:00:02;;;;;;;10.85;3.55;;;20.80;91.50;19.70;101912.00;;;;5074218;28;20186;-74
2022/05/02 12:02:37;;;;;;;7.47;2.22;;;20.20;92.00;19.50;101903.00;;;;5074021;28;20652;-75
2022/05/02 12:05:31;;;;;;;2.28;1.70;;;19.60;92.70;20.20;101906.00;;;;5073383;28;20222;-78
2022/05/02 12:08:04;;;;;;;1.27;1.17;;;19.80;92.80;20.80;101906.00;;;;5057396;28;20181;-77
2022/05/02 12:10:47;;;;;;;1.95;1.20;;;20.20;92.90;21.00;101900.00;;;;5074178;28;20189;-80
2022/05/02 12:13:19;;;;;;;1.38;1.33;;;20.60;92.00;20.00;101912.00;;;;5056333;28;20231;-84
2022/05/02 12:16:00;;;;;;;1.70;1.60;;;20.20;91.80;19.10;101914.00;;;;5072612;28;20299;-80
2022/05/02 12:18:44;;;;;;;7.43;3.83;;;19.50;92.60;18.80;101920.00;;;;5074687;28;20714;-78
2022/05/02 12:21:35;;;;;;;1.33;0.67;;;19.30;93.30;19.50;101893.00;;;;5075138;28;20512;-80
2022/05/02 12:24:03;;;;;;;3.53;1.20;;;18.90;94.20;18.90;101916.00;;;;5069131;28;20566;-80
2022/05/02 12:26:32;;;;;;;1.27;1.27;;;18.90;94.50;18.70;101894.00;;;;5074119;28;20620;-77